Fallsington, Pennsylvania
Current Conditions -  °F | °C
As of 5:53 PM on Thursday 27 Nov 2014 (Local Time) from KTTN Reporting Station
Broken Clouds Broken Clouds  
Wind Chill: 31°   Ceiling: 3700
Heat Index: 35°   Visibility: 10mi
Dew Point: 27°   Wind: 5mph
Humidity: 72%   Direction: 280°W
Pressure: 30.04"   Gusts: NA
Location:  40.1722°N, 74.822°W
Report Text: KTTN 272253Z 28004KT 10SM BKN037 BKN055 02/M03 A3004 RMK AO2 SLP169 T00171028
Loading
Personal Weather Stations






























Interactive Weather Map New forecast layout! Learn more

10-Day Weather Forecast

Advertisements
Track Severe Weather on mobile